Time;durP1;ratioP1;P1;durP2;ratioP2;P2;SDS_P1;SDS_P2;PMS_P1;PMS_P2;Temp;Humidity;BMP_temperature;BMP_pressure;BME280_temperature;BME280_humidity;BME280_pressure;Samples;Min_cycle;Max_cycle;Signal;HPM_P1;HPM_P2
2023/07/10 00:00:34;;;;;;;7.95;7.18;;;30.80;99.90;;;;;;5025477;28;20029;-64
2023/07/10 00:03:00;;;;;;;11.65;7.65;;;30.90;99.90;;;;;;5031743;28;20498;-64
2023/07/10 00:05:25;;;;;;;9.70;7.70;;;30.90;99.90;;;;;;5032678;28;20028;-64
2023/07/10 00:07:51;;;;;;;9.25;7.32;;;30.90;99.90;;;;;;5029143;28;20037;-64
2023/07/10 00:10:17;;;;;;;9.27;7.00;;;30.90;99.90;;;;;;5032769;28;20029;-64
2023/07/10 00:12:44;;;;;;;15.38;8.13;;;30.90;99.90;;;;;;5028293;28;20170;-64
2023/07/10 00:15:20;;;;;;;9.23;8.25;;;30.90;99.90;;;;;;5035148;28;20048;-63
2023/07/10 00:17:51;;;;;;;10.30;7.30;;;30.90;99.90;;;;;;5028559;28;20075;-64
2023/07/10 00:20:26;;;;;;;7.18;6.47;;;30.80;99.90;;;;;;5028777;28;20475;-64
2023/07/10 00:22:52;;;;;;;8.95;7.25;;;30.90;99.90;;;;;;5029363;28;20048;-64
2023/07/10 00:25:19;;;;;;;7.65;6.90;;;31.00;99.90;;;;;;5033569;28;20375;-64
2023/07/10 00:27:49;;;;;;;8.60;7.47;;;31.00;99.90;;;;;;5034284;28;20018;-64
2023/07/10 00:30:17;;;;;;;9.38;7.13;;;31.00;99.90;;;;;;5033107;28;20096;-64
2023/07/10 00:32:44;;;;;;;8.32;7.57;;;31.10;99.90;;;;;;5027653;28;20479;-64
2023/07/10 00:35:11;;;;;;;9.35;7.50;;;30.90;99.90;;;;;;5031781;28;20045;-64
2023/07/10 00:37:37;;;;;;;8.70;7.45;;;30.90;99.90;;;;;;5032641;28;20497;-64
2023/07/10 00:40:17;;;;;;;8.60;7.70;;;30.90;99.90;;;;;;5031929;28;20116;-64
2023/07/10 00:42:43;;;;;;;8.57;7.57;;;31.00;99.90;;;;;;5032726;28;20045;-64
2023/07/10 00:45:12;;;;;;;8.10;7.40;;;30.90;99.90;;;;;;5038528;28;20095;-64
2023/07/10 00:47:41;;;;;;;11.18;7.80;;;30.80;99.90;;;;;;5037615;28;20483;-64
2023/07/10 00:50:18;;;;;;;11.43;7.55;;;30.80;99.90;;;;;;5037090;28;20427;-64
2023/07/10 00:52:47;;;;;;;8.57;7.75;;;30.80;99.90;;;;;;5029371;28;20033;-64
2023/07/10 00:55:38;;;;;;;10.40;7.60;;;30.70;99.90;;;;;;5035687;28;20026;-64
2023/07/10 00:58:18;;;;;;;10.27;7.68;;;30.80;99.90;;;;;;5034574;28;20545;-64
2023/07/10 01:01:19;;;;;;;9.80;7.32;;;30.90;99.90;;;;;;5036093;28;20028;-64
2023/07/10 01:03:51;;;;;;;9.35;7.03;;;30.90;99.90;;;;;;5043679;28;20129;-64
2023/07/10 01:06:18;;;;;;;9.73;7.75;;;30.90;99.90;;;;;;5036290;28;20021;-64
2023/07/10 01:08:50;;;;;;;10.90;7.78;;;30.60;99.90;;;;;;5038640;28;20474;-64
2023/07/10 01:11:16;;;;;;;8.50;7.47;;;30.30;99.90;;;;;;5035337;28;20109;-64
2023/07/10 01:13:44;;;;;;;8.50;7.57;;;30.30;99.90;;;;;;5036206;28;20115;-64
2023/07/10 01:16:10;;;;;;;9.07;7.53;;;30.20;99.90;;;;;;5036383;28;20033;-64
2023/07/10 01:18:37;;;;;;;10.05;7.72;;;30.20;99.90;;;;;;5037209;28;20021;-64
2023/07/10 01:21:30;;;;;;;10.10;7.90;;;30.20;99.90;;;;;;5038058;28;20439;-64
2023/07/10 01:23:57;;;;;;;8.52;7.70;;;30.10;99.90;;;;;;5036700;28;20808;-64
2023/07/10 01:26:24;;;;;;;8.85;7.70;;;30.10;99.90;;;;;;5032154;28;20140;-64
2023/07/10 01:28:52;;;;;;;8.35;7.13;;;30.20;99.90;;;;;;5035633;28;20057;-64
2023/07/10 01:31:19;;;;;;;8.93;7.30;;;30.30;99.90;;;;;;5033054;28;20067;-64
2023/07/10 01:34:06;;;;;;;8.50;7.60;;;30.20;99.90;;;;;;5036004;28;20384;-64
2023/07/10 01:36:35;;;;;;;9.13;8.32;;;30.10;99.90;;;;;;5036142;28;20061;-64
2023/07/10 01:39:10;;;;;;;11.05;7.85;;;30.00;99.90;;;;;;5033491;28;20025;-64
2023/07/10 01:41:42;;;;;;;8.45;7.65;;;29.90;99.90;;;;;;5033963;28;20064;-64
2023/07/10 01:44:32;;;;;;;9.85;7.50;;;30.00;99.90;;;;;;5034371;28;20025;-64
2023/07/10 01:47:00;;;;;;;9.30;7.50;;;29.80;99.90;;;;;;5034291;28;20364;-64
2023/07/10 01:49:28;;;;;;;8.73;7.93;;;29.80;99.90;;;;;;5036144;28;20071;-64
2023/07/10 01:51:56;;;;;;;9.30;8.40;;;29.90;99.90;;;;;;5035365;28;20032;-64
2023/07/10 01:54:22;;;;;;;12.70;8.35;;;29.90;99.90;;;;;;5029130;28;20022;-64
2023/07/10 01:56:48;;;;;;;9.25;8.30;;;29.80;99.90;;;;;;5032764;28;20038;-64
2023/07/10 01:59:13;;;;;;;8.90;8.05;;;29.80;99.90;;;;;;5032457;28;20040;-64
2023/07/10 02:01:39;;;;;;;9.77;8.77;;;29.80;99.90;;;;;;5031610;28;20048;-64
2023/07/10 02:04:05;;;;;;;10.20;8.45;;;29.80;99.90;;;;;;5034747;28;20029;-64
2023/07/10 02:06:33;;;;;;;14.25;9.20;;;29.70;99.90;;;;;;5035436;28;20018;-65
2023/07/10 02:08:59;;;;;;;9.57;8.20;;;29.80;99.90;;;;;;5045074;28;20028;-64
2023/07/10 02:11:25;;;;;;;9.30;8.40;;;29.70;99.90;;;;;;5030454;28;20029;-64
2023/07/10 02:13:51;;;;;;;10.35;8.50;;;29.80;99.90;;;;;;5029366;28;20049;-64
2023/07/10 02:16:16;;;;;;;8.85;8.05;;;29.70;99.90;;;;;;5034727;28;20445;-65
2023/07/10 02:18:42;;;;;;;9.52;8.48;;;29.80;99.90;;;;;;5035474;28;20119;-64
2023/07/10 02:21:08;;;;;;;9.15;8.25;;;29.70;99.90;;;;;;5036198;28;20025;-64
2023/07/10 02:23:37;;;;;;;10.80;8.95;;;29.60;99.90;;;;;;5036508;28;20116;-64
2023/07/10 02:26:03;;;;;;;10.25;8.90;;;29.80;99.90;;;;;;5031037;28;20019;-64
2023/07/10 02:28:29;;;;;;;9.75;8.75;;;29.80;99.90;;;;;;5032921;28;20040;-64
2023/07/10 02:30:55;;;;;;;9.75;8.85;;;29.70;99.90;;;;;;5033443;28;20033;-65
2023/07/10 02:33:21;;;;;;;9.38;8.35;;;29.80;99.90;;;;;;5033463;28;20029;-64
2023/07/10 02:35:47;;;;;;;9.23;8.43;;;29.60;99.90;;;;;;5035932;28;20021;-64
2023/07/10 02:38:13;;;;;;;9.55;8.18;;;29.60;99.90;;;;;;5034655;28;20025;-64
2023/07/10 02:40:42;;;;;;;9.43;8.10;;;29.60;99.90;;;;;;5032992;28;20445;-64
2023/07/10 02:43:07;;;;;;;9.95;9.05;;;29.60;99.90;;;;;;5026442;28;20032;-64
2023/07/10 02:45:35;;;;;;;9.63;8.63;;;29.40;99.90;;;;;;5032388;28;20026;-64
2023/07/10 02:48:00;;;;;;;8.80;8.00;;;29.60;99.90;;;;;;5034817;28;20108;-64
2023/07/10 02:50:26;;;;;;;9.43;7.90;;;29.60;99.90;;;;;;5035036;28;20451;-64
2023/07/10 02:52:52;;;;;;;9.93;8.20;;;29.50;99.90;;;;;;5037955;28;20033;-64
2023/07/10 02:55:17;;;;;;;9.45;8.48;;;29.40;99.90;;;;;;5035938;28;20024;-64
2023/07/10 02:57:43;;;;;;;9.00;8.20;;;29.30;99.90;;;;;;5032574;28;20125;-64
2023/07/10 03:00:09;;;;;;;8.57;7.88;;;29.30;99.90;;;;;;5033387;28;20029;-64
2023/07/10 03:02:35;;;;;;;11.20;8.80;;;29.30;99.90;;;;;;5033952;28;20037;-65
2023/07/10 03:05:01;;;;;;;9.32;8.43;;;29.30;99.90;;;;;;5036015;28;20532;-64
2023/07/10 03:07:27;;;;;;;8.93;7.93;;;29.30;99.90;;;;;;5035335;28;20112;-64
2023/07/10 03:09:53;;;;;;;10.00;8.43;;;29.20;99.90;;;;;;5034468;28;20092;-64
2023/07/10 03:12:21;;;;;;;9.43;8.55;;;29.10;99.90;;;;;;5035902;28;20025;-64
2023/07/10 03:14:47;;;;;;;10.27;8.05;;;29.10;99.90;;;;;;5033495;28;20028;-64
2023/07/10 03:17:13;;;;;;;9.68;8.60;;;29.20;99.90;;;;;;5026617;28;20444;-64
2023/07/10 03:19:38;;;;;;;11.52;8.15;;;29.20;99.90;;;;;;5030305;28;20057;-65
2023/07/10 03:22:04;;;;;;;8.52;7.70;;;29.30;99.90;;;;;;5035389;28;20064;-64
2023/07/10 03:24:30;;;;;;;10.35;8.48;;;29.10;99.90;;;;;;5032191;28;20436;-63
2023/07/10 03:26:56;;;;;;;9.35;8.55;;;29.10;99.90;;;;;;5032866;28;20032;-63
2023/07/10 03:29:21;;;;;;;8.82;7.93;;;29.20;99.90;;;;;;5032905;28;20025;-63
2023/07/10 03:31:47;;;;;;;8.63;7.72;;;29.20;99.90;;;;;;5033055;28;20402;-63
2023/07/10 03:34:14;;;;;;;8.13;7.32;;;29.20;99.90;;;;;;5033723;28;20013;-63
2023/07/10 03:36:39;;;;;;;8.75;7.22;;;29.10;99.90;;;;;;5034769;28;20486;-63
2023/07/10 03:39:06;;;;;;;7.85;7.15;;;29.00;99.90;;;;;;5035259;28;20050;-63
2023/07/10 03:41:32;;;;;;;9.27;7.97;;;29.10;99.90;;;;;;5035961;28;20415;-63
2023/07/10 03:43:58;;;;;;;8.40;7.60;;;29.00;99.90;;;;;;5032282;28;20446;-63
2023/07/10 03:46:24;;;;;;;10.82;7.50;;;29.00;99.90;;;;;;5030255;28;20535;-63
2023/07/10 03:48:51;;;;;;;9.05;7.50;;;29.00;99.90;;;;;;5034589;28;20021;-63
2023/07/10 03:51:17;;;;;;;8.70;7.78;;;29.10;99.90;;;;;;5034461;28;20107;-63
2023/07/10 03:53:43;;;;;;;8.30;7.50;;;29.10;99.90;;;;;;5034677;28;20076;-63
2023/07/10 03:56:09;;;;;;;9.65;7.57;;;29.20;99.90;;;;;;5035008;28;20021;-63
2023/07/10 03:58:38;;;;;;;8.98;7.15;;;29.00;99.90;;;;;;5035801;28;20399;-63
2023/07/10 04:01:04;;;;;;;9.48;7.13;;;29.30;99.90;;;;;;5032235;28;20033;-63
2023/07/10 04:03:32;;;;;;;7.75;7.05;;;29.10;99.90;;;;;;5033030;28;20033;-63
2023/07/10 04:05:58;;;;;;;10.25;8.30;;;29.20;99.90;;;;;;5033538;28;20418;-63
2023/07/10 04:08:39;;;;;;;9.15;7.82;;;29.20;99.90;;;;;;5034245;28;20025;-64
2023/07/10 04:11:11;;;;;;;9.75;8.75;;;29.10;99.90;;;;;;5030253;28;20491;-63
2023/07/10 04:13:38;;;;;;;9.20;8.25;;;29.10;99.90;;;;;;5033905;28;20109;-64
2023/07/10 04:16:20;;;;;;;12.18;8.30;;;29.10;99.90;;;;;;5031705;28;20445;-64
2023/07/10 04:18:47;;;;;;;10.85;8.60;;;29.10;99.90;;;;;;5033270;28;20036;-64
2023/07/10 04:21:13;;;;;;;9.07;8.20;;;29.00;99.90;;;;;;5036858;28;20017;-64
2023/07/10 04:23:39;;;;;;;11.00;8.13;;;29.00;99.90;;;;;;5038070;28;20482;-63
2023/07/10 04:26:06;;;;;;;8.88;7.97;;;28.90;99.90;;;;;;5042131;28;20025;-63
2023/07/10 04:28:31;;;;;;;10.80;7.72;;;28.90;99.90;;;;;;5038721;28;20506;-63
2023/07/10 04:30:57;;;;;;;9.18;8.20;;;28.90;99.90;;;;;;5036050;28;20059;-63
2023/07/10 04:33:23;;;;;;;9.32;8.38;;;28.90;99.90;;;;;;5036762;28;20029;-63
2023/07/10 04:35:56;;;;;;;8.57;7.68;;;28.80;99.90;;;;;;5036858;28;20034;-64
2023/07/10 04:38:27;;;;;;;8.77;7.97;;;28.90;99.90;;;;;;5033788;28;20053;-64
2023/07/10 04:40:57;;;;;;;12.00;8.43;;;28.90;99.90;;;;;;5040120;28;20021;-64
2023/07/10 04:43:25;;;;;;;8.90;8.10;;;28.80;99.90;;;;;;5035705;28;20083;-64
2023/07/10 04:45:54;;;;;;;11.10;8.38;;;28.90;99.90;;;;;;5035320;28;20021;-64
2023/07/10 04:48:21;;;;;;;8.65;7.63;;;28.90;99.90;;;;;;5033503;28;20424;-63
2023/07/10 04:50:48;;;;;;;8.63;7.72;;;28.90;99.90;;;;;;5034790;28;20018;-63
2023/07/10 04:53:14;;;;;;;10.63;8.10;;;28.90;99.90;;;;;;5034255;28;20490;-64
2023/07/10 04:55:40;;;;;;;8.63;7.47;;;28.90;99.90;;;;;;5033687;28;20037;-63
2023/07/10 04:58:06;;;;;;;9.75;7.88;;;28.90;99.90;;;;;;5034447;28;20045;-64
2023/07/10 05:00:33;;;;;;;9.90;7.68;;;28.90;99.90;;;;;;5035693;28;20368;-64
2023/07/10 05:02:58;;;;;;;8.50;7.63;;;29.00;99.90;;;;;;5033353;28;20044;-64
2023/07/10 05:05:24;;;;;;;9.65;7.93;;;28.90;99.90;;;;;;5033155;28;20022;-63
2023/07/10 05:07:49;;;;;;;10.07;8.07;;;29.00;99.90;;;;;;5036825;28;20027;-63
2023/07/10 05:10:15;;;;;;;13.55;8.35;;;29.00;99.90;;;;;;5037941;28;20104;-63
2023/07/10 05:12:41;;;;;;;8.52;7.55;;;29.00;99.90;;;;;;5031520;28;20076;-63
2023/07/10 05:15:07;;;;;;;13.63;8.07;;;29.00;99.90;;;;;;5032571;28;20026;-63
2023/07/10 05:17:32;;;;;;;11.65;7.38;;;29.00;99.90;;;;;;5029545;28;20033;-63
2023/07/10 05:19:58;;;;;;;9.63;8.73;;;29.00;99.90;;;;;;5032080;28;20029;-63
2023/07/10 05:22:24;;;;;;;9.13;7.82;;;29.00;99.90;;;;;;5037722;28;20076;-63
2023/07/10 05:24:51;;;;;;;11.75;7.85;;;29.00;99.90;;;;;;5037554;28;20018;-63
2023/07/10 05:27:16;;;;;;;11.18;8.18;;;29.00;99.90;;;;;;5037675;28;20113;-63
2023/07/10 05:29:42;;;;;;;9.82;8.27;;;29.00;99.90;;;;;;5038015;28;20116;-63
2023/07/10 05:32:08;;;;;;;9.02;7.20;;;29.00;99.90;;;;;;5035147;28;20029;-63
2023/07/10 05:34:34;;;;;;;7.85;7.05;;;28.80;99.90;;;;;;5035128;28;20487;-63
2023/07/10 05:36:59;;;;;;;7.30;6.55;;;28.90;99.90;;;;;;5035781;28;20109;-63
2023/07/10 05:39:27;;;;;;;6.90;6.20;;;28.90;99.90;;;;;;5031839;28;20033;-63
2023/07/10 05:41:53;;;;;;;9.88;6.88;;;29.00;99.90;;;;;;5032926;28;20052;-63
2023/07/10 05:44:18;;;;;;;7.95;6.85;;;29.00;99.90;;;;;;5039297;28;20475;-63
2023/07/10 05:46:44;;;;;;;9.50;7.47;;;28.90;99.90;;;;;;5036110;28;20022;-63
2023/07/10 05:49:10;;;;;;;7.53;6.45;;;28.80;99.90;;;;;;5035034;28;20036;-64
2023/07/10 05:51:35;;;;;;;8.30;6.82;;;28.60;99.90;;;;;;5034058;28;20040;-64
2023/07/10 05:54:02;;;;;;;10.75;7.88;;;28.80;99.90;;;;;;5034599;28;20017;-63
2023/07/10 05:56:27;;;;;;;8.52;7.35;;;29.10;99.90;;;;;;5034817;28;20052;-64
2023/07/10 05:58:53;;;;;;;8.55;7.35;;;29.50;99.90;;;;;;5032504;28;20033;-64
2023/07/10 06:01:18;;;;;;;7.53;6.82;;;29.40;99.90;;;;;;5033059;28;20025;-64
2023/07/10 06:03:44;;;;;;;7.75;6.93;;;29.70;99.90;;;;;;5025447;28;20382;-64
2023/07/10 06:06:10;;;;;;;10.98;6.80;;;29.70;99.90;;;;;;5035156;28;20505;-64
2023/07/10 06:08:37;;;;;;;8.15;7.05;;;29.60;99.90;;;;;;5036201;28;20441;-64
2023/07/10 06:11:05;;;;;;;8.90;7.82;;;29.70;99.90;;;;;;5023919;28;20030;-64
2023/07/10 06:13:30;;;;;;;10.05;7.82;;;29.80;99.90;;;;;;5036726;28;20032;-64
2023/07/10 06:15:58;;;;;;;10.30;7.03;;;29.60;99.90;;;;;;5034314;28;20062;-64
2023/07/10 06:18:24;;;;;;;9.95;7.85;;;29.80;99.90;;;;;;5027061;28;20508;-64
2023/07/10 06:20:52;;;;;;;10.38;7.82;;;29.70;99.90;;;;;;5034436;28;20025;-64
2023/07/10 06:23:18;;;;;;;12.85;7.65;;;29.70;99.90;;;;;;5034320;28;20391;-64
2023/07/10 06:25:44;;;;;;;8.88;7.10;;;29.80;99.90;;;;;;5036992;28;20021;-64
2023/07/10 06:28:11;;;;;;;10.27;7.28;;;29.90;99.90;;;;;;5036878;28;20029;-64
2023/07/10 06:30:41;;;;;;;15.05;6.63;;;29.90;99.90;;;;;;5042097;28;20036;-64
2023/07/10 06:33:07;;;;;;;10.27;7.00;;;30.40;99.90;;;;;;5033505;28;20053;-64
2023/07/10 06:35:33;;;;;;;7.60;6.82;;;30.40;99.90;;;;;;5030990;28;20025;-64
2023/07/10 06:37:59;;;;;;;8.77;7.85;;;30.40;99.90;;;;;;5028303;28;20025;-64
2023/07/10 06:40:25;;;;;;;10.85;7.22;;;30.60;99.90;;;;;;5034636;28;20086;-64
2023/07/10 06:42:51;;;;;;;9.68;8.02;;;30.70;99.90;;;;;;5033240;28;20029;-65
2023/07/10 06:45:17;;;;;;;7.43;6.70;;;30.80;99.90;;;;;;5033853;28;20118;-65
2023/07/10 06:47:44;;;;;;;8.32;6.47;;;30.80;99.90;;;;;;5032783;28;20037;-63
2023/07/10 06:50:13;;;;;;;10.02;7.20;;;31.00;99.90;;;;;;5034190;28;20029;-63
2023/07/10 06:52:41;;;;;;;8.38;6.93;;;30.70;99.90;;;;;;5030992;28;20018;-63
2023/07/10 06:55:10;;;;;;;8.25;7.15;;;31.00;99.90;;;;;;5036565;28;20013;-63
2023/07/10 06:57:35;;;;;;;8.80;7.70;;;31.30;99.90;;;;;;5027872;28;20060;-64
2023/07/10 07:00:03;;;;;;;9.38;7.40;;;30.70;99.90;;;;;;5032937;28;20100;-63
2023/07/10 07:02:28;;;;;;;12.25;7.88;;;30.50;99.90;;;;;;5032785;28;20025;-64
2023/07/10 07:04:54;;;;;;;14.98;10.27;;;30.20;99.90;;;;;;5031052;28;20048;-64
2023/07/10 07:07:20;;;;;;;9.27;7.57;;;30.20;99.90;;;;;;5030839;28;20029;-58
2023/07/10 07:09:45;;;;;;;13.18;8.13;;;30.30;99.90;;;;;;5027186;28;20030;-58
2023/07/10 07:12:12;;;;;;;11.20;8.13;;;30.50;99.90;;;;;;5035926;28;20045;-58
2023/07/10 07:14:37;;;;;;;7.68;6.88;;;30.50;99.90;;;;;;5037371;28;20055;-59
2023/07/10 07:17:04;;;;;;;10.05;7.40;;;30.60;99.90;;;;;;5033141;28;20509;-58
2023/07/10 07:19:30;;;;;;;7.82;7.03;;;30.60;99.90;;;;;;5029030;28;20030;-59
2023/07/10 07:21:56;;;;;;;14.00;8.52;;;30.60;99.90;;;;;;5032881;28;20030;-58
2023/07/10 07:24:21;;;;;;;10.43;7.22;;;30.40;99.90;;;;;;5034794;28;20459;-58
2023/07/10 07:26:47;;;;;;;11.98;8.25;;;30.50;99.90;;;;;;5034100;28;20038;-58
2023/07/10 07:29:13;;;;;;;10.77;7.55;;;30.40;99.90;;;;;;5032349;28;20120;-58
2023/07/10 07:31:39;;;;;;;9.50;7.65;;;30.60;99.90;;;;;;5028649;28;20017;-58
2023/07/10 07:34:05;;;;;;;9.38;7.85;;;30.60;99.90;;;;;;5027680;28;20497;-59
2023/07/10 07:36:34;;;;;;;12.52;8.70;;;30.70;99.90;;;;;;5031951;28;20034;-58
2023/07/10 07:39:01;;;;;;;11.82;8.07;;;30.70;99.90;;;;;;5034550;28;20146;-58
2023/07/10 07:41:26;;;;;;;10.02;8.40;;;30.80;99.90;;;;;;5034859;28;20043;-58
2023/07/10 07:43:52;;;;;;;10.00;7.72;;;31.00;99.90;;;;;;5032369;28;20038;-58
2023/07/10 07:46:18;;;;;;;10.65;7.63;;;30.90;99.90;;;;;;5029627;28;20033;-58
2023/07/10 07:48:43;;;;;;;11.65;9.07;;;31.00;99.90;;;;;;5031873;28;20116;-59
2023/07/10 07:51:09;;;;;;;10.38;7.93;;;31.00;99.90;;;;;;5031353;28;20104;-59
2023/07/10 07:53:38;;;;;;;9.30;7.35;;;30.90;99.90;;;;;;5034962;28;20037;-58
2023/07/10 07:56:04;;;;;;;10.13;7.78;;;31.30;99.90;;;;;;5033405;28;20029;-58
2023/07/10 07:58:30;;;;;;;8.75;7.70;;;31.60;99.90;;;;;;5035663;28;20103;-58
2023/07/10 08:00:55;;;;;;;10.45;7.60;;;31.90;99.90;;;;;;5035617;28;20429;-58
2023/07/10 08:03:21;;;;;;;12.85;8.05;;;31.90;99.90;;;;;;5034927;28;20030;-58
2023/07/10 08:05:47;;;;;;;12.02;7.57;;;31.80;99.90;;;;;;5032303;28;20088;-58
2023/07/10 08:08:12;;;;;;;10.45;8.55;;;31.80;99.90;;;;;;5031867;28;20470;-58
2023/07/10 08:10:42;;;;;;;11.45;7.75;;;32.00;99.90;;;;;;5032255;28;20037;-58
2023/07/10 08:13:10;;;;;;;9.30;8.18;;;32.10;99.90;;;;;;5036259;28;20026;-59
2023/07/10 08:15:36;;;;;;;10.25;8.50;;;32.20;99.90;;;;;;5037045;28;20021;-58
2023/07/10 08:18:02;;;;;;;11.40;7.93;;;31.90;99.90;;;;;;5035981;28;20030;-58
2023/07/10 08:20:28;;;;;;;8.70;7.75;;;31.80;99.90;;;;;;5035447;28;20025;-58
2023/07/10 08:22:54;;;;;;;9.65;7.68;;;32.30;99.90;;;;;;5032605;28;20564;-58
2023/07/10 08:25:19;;;;;;;12.35;8.55;;;32.60;99.90;;;;;;5035791;28;20029;-58
2023/07/10 08:27:45;;;;;;;12.23;9.00;;;33.00;99.90;;;;;;5033337;28;20083;-58
2023/07/10 08:30:13;;;;;;;12.98;8.75;;;32.10;99.90;;;;;;5040206;28;20096;-58
2023/07/10 08:32:39;;;;;;;9.88;8.85;;;31.80;99.90;;;;;;5033687;28;20037;-58
2023/07/10 08:35:07;;;;;;;13.40;9.50;;;31.60;99.90;;;;;;5034770;28;20036;-58
2023/07/10 08:37:33;;;;;;;9.50;8.07;;;31.50;99.90;;;;;;5029778;28;20068;-58
2023/07/10 08:39:59;;;;;;;11.93;8.18;;;31.70;99.90;;;;;;5029809;28;20104;-58
2023/07/10 08:42:29;;;;;;;9.00;7.85;;;31.90;99.90;;;;;;5034084;28;20116;-58
2023/07/10 08:44:56;;;;;;;14.20;9.00;;;32.40;99.90;;;;;;5031170;28;20509;-58
2023/07/10 08:47:24;;;;;;;12.10;8.55;;;32.40;99.90;;;;;;5032414;28;20433;-58
2023/07/10 08:50:00;;;;;;;9.88;8.48;;;32.20;99.90;;;;;;5029071;28;20033;-58
2023/07/10 08:52:49;;;;;;;8.38;7.47;;;32.00;99.90;;;;;;5031030;28;20400;-58
2023/07/10 08:55:27;;;;;;;10.40;8.15;;;32.60;99.90;;;;;;5032276;28;21027;-58
2023/07/10 08:58:00;;;;;;;9.35;8.40;;;32.70;99.90;;;;;;5029103;28;20034;-58
2023/07/10 09:00:29;;;;;;;9.32;8.43;;;32.70;99.90;;;;;;5041176;28;20021;-58
2023/07/10 09:03:10;;;;;;;9.90;8.90;;;32.40;99.90;;;;;;5036493;28;20049;-58
2023/07/10 09:05:38;;;;;;;11.98;9.35;;;32.40;99.90;;;;;;5032114;28;20065;-60
2023/07/10 09:08:10;;;;;;;9.27;8.07;;;32.20;99.90;;;;;;5035605;28;20026;-58
2023/07/10 09:10:43;;;;;;;11.63;9.07;;;32.40;99.90;;;;;;5036365;28;20025;-58
2023/07/10 09:13:16;;;;;;;9.82;8.85;;;32.20;99.90;;;;;;5036136;28;20021;-58
2023/07/10 09:15:55;;;;;;;14.75;9.07;;;32.00;99.90;;;;;;5035509;28;20026;-59
2023/07/10 09:18:24;;;;;;;12.30;9.77;;;32.20;99.90;;;;;;5035597;28;20117;-58
2023/07/10 09:20:53;;;;;;;13.23;9.23;;;32.20;99.90;;;;;;5035184;28;20092;-58
2023/07/10 09:23:25;;;;;;;11.40;9.48;;;31.90;99.90;;;;;;5035538;28;20033;-58
2023/07/10 09:25:56;;;;;;;11.30;9.20;;;32.10;99.90;;;;;;5034057;28;20029;-58
2023/07/10 09:28:24;;;;;;;9.98;9.00;;;32.50;99.90;;;;;;5035160;28;20475;-59
2023/07/10 09:31:09;;;;;;;12.43;8.45;;;32.40;99.90;;;;;;5035193;28;20025;-59
2023/07/10 09:33:43;;;;;;;11.73;8.98;;;33.00;99.90;;;;;;5035129;28;20038;-59
2023/07/10 09:36:18;;;;;;;10.45;8.93;;;33.00;99.90;;;;;;5035156;28;20044;-58
2023/07/10 09:38:45;;;;;;;15.27;10.10;;;33.00;99.90;;;;;;5035346;28;20057;-59
2023/07/10 09:41:17;;;;;;;13.77;9.98;;;32.90;99.90;;;;;;5034948;28;20026;-59
2023/07/10 09:43:55;;;;;;;11.43;10.23;;;33.10;99.90;;;;;;5035456;28;20036;-59
2023/07/10 09:46:32;;;;;;;10.65;9.30;;;32.80;99.90;;;;;;5035017;28;20024;-59
2023/07/10 09:49:02;;;;;;;12.10;10.05;;;33.10;99.90;;;;;;5035081;28;20035;-59
2023/07/10 09:51:28;;;;;;;11.65;8.45;;;32.80;99.90;;;;;;5034822;28;20025;-59
2023/07/10 09:54:03;;;;;;;14.38;9.77;;;33.80;99.90;;;;;;5035065;28;20147;-58
2023/07/10 09:56:35;;;;;;;12.98;9.98;;;34.30;99.90;;;;;;5034523;28;20045;-59
2023/07/10 09:59:02;;;;;;;10.52;9.45;;;34.50;99.90;;;;;;5034782;28;20049;-59
2023/07/10 10:01:30;;;;;;;13.55;10.27;;;34.50;99.90;;;;;;5034864;28;20025;-59
2023/07/10 10:03:57;;;;;;;12.85;9.80;;;34.20;99.90;;;;;;5034516;28;20033;-59
2023/07/10 10:06:31;;;;;;;11.98;10.82;;;34.00;99.90;;;;;;5034678;28;20045;-59
2023/07/10 10:08:57;;;;;;;13.93;10.13;;;33.90;99.90;;;;;;5034544;28;20022;-59
2023/07/10 10:11:40;;;;;;;11.30;10.25;;;33.90;99.90;;;;;;5034500;28;20109;-58
2023/07/10 10:14:13;;;;;;;13.50;12.23;;;34.20;99.90;;;;;;5034524;28;20022;-59
2023/07/10 10:16:49;;;;;;;17.38;11.50;;;33.60;99.90;;;;;;5033986;28;20026;-58
2023/07/10 10:19:31;;;;;;;13.02;11.65;;;33.60;99.90;;;;;;5034171;28;20491;-59
2023/07/10 10:21:56;;;;;;;12.35;11.13;;;33.60;99.90;;;;;;5034220;28;20037;-58
2023/07/10 10:24:23;;;;;;;11.27;10.13;;;34.10;99.90;;;;;;5034463;28;20014;-58
2023/07/10 10:27:26;;;;;;;11.48;10.32;;;34.30;99.90;;;;;;5034278;28;20029;-59
2023/07/10 10:30:07;;;;;;;15.93;14.47;;;34.40;99.90;;;;;;5023689;28;20116;-58
2023/07/10 10:32:57;;;;;;;12.70;11.35;;;33.70;99.90;;;;;;5032671;28;20017;-58
2023/07/10 10:35:31;;;;;;;14.77;13.30;;;33.80;99.90;;;;;;5033368;28;20025;-58
2023/07/10 10:38:35;;;;;;;11.15;10.05;;;33.60;99.90;;;;;;5033712;28;20076;-58
2023/07/10 10:41:26;;;;;;;14.75;11.20;;;34.30;99.90;;;;;;5031686;28;20138;-58
2023/07/10 10:44:04;;;;;;;14.48;11.50;;;34.80;99.90;;;;;;5034248;28;20045;-58
2023/07/10 10:46:51;;;;;;;15.80;14.13;;;34.40;99.90;;;;;;5020147;28;20391;-58
2023/07/10 10:49:57;;;;;;;13.38;11.23;;;34.20;99.90;;;;;;5034070;28;20032;-59
2023/07/10 10:52:28;;;;;;;13.15;11.82;;;35.10;99.90;;;;;;5033901;28;20099;-58
2023/07/10 10:55:01;;;;;;;13.13;11.93;;;34.70;99.90;;;;;;5032371;28;20061;-59
2023/07/10 10:57:33;;;;;;;13.93;12.57;;;35.20;99.90;;;;;;5033469;28;20053;-59
2023/07/10 11:00:16;;;;;;;11.77;10.55;;;35.10;99.90;;;;;;5033624;28;20060;-59
2023/07/10 11:02:57;;;;;;;13.60;12.30;;;35.20;99.90;;;;;;5033628;28;20095;-58
2023/07/10 11:05:39;;;;;;;13.27;11.80;;;35.00;99.90;;;;;;5021027;28;20483;-59
2023/07/10 11:08:13;;;;;;;11.65;10.40;;;34.70;99.90;;;;;;5033680;28;20045;-59
2023/07/10 11:10:41;;;;;;;14.55;11.32;;;34.80;99.90;;;;;;5033556;28;20041;-59
2023/07/10 11:13:33;;;;;;;16.73;13.60;;;35.30;99.90;;;;;;5033557;28;20371;-58
2023/07/10 11:16:02;;;;;;;14.45;12.73;;;34.90;99.90;;;;;;5033740;28;20100;-59
2023/07/10 11:18:29;;;;;;;16.42;10.95;;;35.30;99.90;;;;;;5033353;28;20021;-59
2023/07/10 11:20:56;;;;;;;12.90;11.80;;;35.30;99.90;;;;;;5031032;28;20419;-58
2023/07/10 11:23:43;;;;;;;14.50;12.13;;;35.40;99.90;;;;;;5032132;28;20397;-58
2023/07/10 11:26:13;;;;;;;10.40;9.35;;;35.50;99.90;;;;;;5032906;28;20498;-58
2023/07/10 11:28:55;;;;;;;10.80;8.95;;;36.10;99.90;;;;;;5032584;28;20530;-58
2023/07/10 11:31:30;;;;;;;11.40;9.73;;;39.40;99.90;;;;;;5032909;28;20037;-59
2023/07/10 11:34:19;;;;;;;11.98;10.73;;;40.80;99.90;;;;;;5032923;28;20355;-59
2023/07/10 11:36:46;;;;;;;11.32;10.23;;;40.60;99.90;;;;;;5032983;28;20033;-59
2023/07/10 11:39:19;;;;;;;12.65;11.65;;;40.50;99.90;;;;;;5033215;28;20037;-59
2023/07/10 11:41:45;;;;;;;10.95;9.98;;;41.10;99.90;;;;;;5033156;28;20402;-59
2023/07/10 11:44:31;;;;;;;11.80;10.80;;;41.60;99.90;;;;;;5032857;28;20021;-59
2023/07/10 11:47:00;;;;;;;11.23;10.20;;;43.40;99.90;;;;;;5033034;28;20021;-59
2023/07/10 11:49:34;;;;;;;12.65;11.40;;;45.90;99.90;;;;;;5032913;28;20474;-59
2023/07/10 11:52:18;;;;;;;12.60;11.35;;;47.20;99.90;;;;;;5020269;28;20018;-59
2023/07/10 11:54:49;;;;;;;11.68;10.23;;;48.20;99.90;;;;;;5020221;28;20159;-59
2023/07/10 11:57:32;;;;;;;12.35;11.35;;;48.10;99.90;;;;;;5032668;28;20053;-59
2023/07/10 12:00:00;;;;;;;12.35;11.15;;;48.80;99.90;;;;;;5021098;28;20079;-59
2023/07/10 12:02:38;;;;;;;12.10;10.82;;;48.00;99.90;;;;;;5032946;28;20390;-59
2023/07/10 12:05:40;;;;;;;11.82;10.70;;;47.50;99.90;;;;;;5032639;28;20426;-59
2023/07/10 12:08:08;;;;;;;11.55;10.57;;;48.00;99.90;;;;;;5032634;28;20029;-59
2023/07/10 12:10:50;;;;;;;12.82;11.63;;;48.30;99.90;;;;;;5032724;28;20086;-59
2023/07/10 12:13:18;;;;;;;12.60;11.60;;;47.60;99.90;;;;;;5032532;28;20064;-59
2023/07/10 12:15:46;;;;;;;12.48;11.35;;;47.10;99.90;;;;;;5032964;28;20117;-59
2023/07/10 12:18:25;;;;;;;11.82;11.02;;;46.50;99.90;;;;;;5032523;28;20041;-59
2023/07/10 12:20:52;;;;;;;10.48;9.68;;;45.80;99.90;;;;;;5032934;28;20485;-59
2023/07/10 12:23:18;;;;;;;11.55;10.50;;;43.50;99.90;;;;;;5032413;28;20041;-59
2023/07/10 12:25:49;;;;;;;12.05;11.05;;;42.10;99.90;;;;;;5032815;28;20065;-58
2023/07/10 12:28:17;;;;;;;12.43;11.50;;;41.60;99.90;;;;;;5032460;28;20098;-59
2023/07/10 12:30:48;;;;;;;12.07;11.05;;;40.30;99.90;;;;;;5032536;28;20026;-59
2023/07/10 12:33:32;;;;;;;11.65;10.63;;;41.60;99.90;;;;;;5031706;28;20025;-58
2023/07/10 12:36:25;;;;;;;12.23;11.10;;;41.90;99.90;;;;;;5021813;28;20033;-59
2023/07/10 12:38:54;;;;;;;11.23;10.43;;;42.50;99.90;;;;;;5033373;28;20038;-59
2023/07/10 12:41:22;;;;;;;11.45;10.45;;;44.20;99.90;;;;;;5034934;28;20379;-59
2023/07/10 12:43:56;;;;;;;11.70;10.80;;;43.50;99.90;;;;;;5036075;28;20029;-59
2023/07/10 12:46:25;;;;;;;11.20;10.35;;;42.90;99.90;;;;;;5036175;28;20018;-59
2023/07/10 12:48:58;;;;;;;10.68;9.63;;;42.10;99.90;;;;;;5036222;28;20482;-59
2023/07/10 12:51:34;;;;;;;11.73;10.52;;;42.20;99.90;;;;;;5036167;28;20032;-59
2023/07/10 12:54:02;;;;;;;11.73;10.52;;;42.60;99.90;;;;;;5035847;28;20036;-59